Time;durP1;ratioP1;P1;durP2;ratioP2;P2;SDS_P1;SDS_P2;PMS_P1;PMS_P2;Temp;Humidity;BMP_temperature;BMP_pressure;BME280_temperature;BME280_humidity;BME280_pressure;Samples;Min_cycle;Max_cycle;Signal;HPM_P1;HPM_P2
2021/06/10 16:02:55;;;;;;;4.97;2.60;;;;;;;23.54;43.54;98855.72;125765;1093;103057;-72
2021/06/10 16:05:27;;;;;;;16.97;6.37;;;;;;;23.55;43.41;98866.39;125572;1092;103173;-72
2021/06/10 16:07:55;;;;;;;17.00;4.60;;;;;;;23.56;43.30;98862.63;125693;1093;103409;-74
2021/06/10 16:10:25;;;;;;;17.43;4.20;;;;;;;23.57;43.06;98868.89;125695;1093;102910;-71
2021/06/10 16:12:53;;;;;;;21.40;5.13;;;;;;;23.58;42.99;98873.28;125692;1093;102999;-71
2021/06/10 16:15:25;;;;;;;9.97;3.30;;;;;;;23.57;42.82;98863.45;125690;1093;103065;-75
2021/06/10 16:17:57;;;;;;;11.83;2.90;;;;;;;23.57;42.54;98863.45;125711;1092;103040;-74
2021/06/10 16:20:27;;;;;;;14.47;4.07;;;;;;;23.56;43.05;98861.78;125696;1093;102997;-74
2021/06/10 16:22:57;;;;;;;13.93;4.27;;;;;;;23.53;42.47;98860.31;125585;1093;103576;-73
2021/06/10 16:25:26;;;;;;;23.30;10.60;;;;;;;23.54;42.68;98864.70;125709;1093;103031;-73
2021/06/10 16:27:54;;;;;;;11.40;3.80;;;;;;;23.52;42.11;98858.64;125649;1092;103542;-75
2021/06/10 16:30:36;;;;;;;9.67;3.23;;;;;;;23.51;42.21;98859.68;125634;1093;102991;-71
2021/06/10 16:33:05;;;;;;;8.93;3.00;;;;;;;23.51;42.64;98866.97;125670;1093;102942;-71
2021/06/10 16:35:34;;;;;;;7.30;2.85;;;;;;;23.47;42.33;98861.94;125565;1092;102941;-74
2021/06/10 16:38:03;;;;;;;8.33;2.83;;;;;;;23.46;42.02;98865.69;125564;1093;103354;-76
2021/06/10 16:40:31;;;;;;;7.73;2.37;;;;;;;23.40;42.17;98863.80;125631;1093;102939;-77
2021/06/10 16:43:05;;;;;;;6.07;2.53;;;;;;;23.38;41.54;98863.17;125625;1092;102951;-73
2021/06/10 16:45:34;;;;;;;4.43;2.30;;;;;;;23.37;41.81;98866.06;125711;1093;103098;-75
2021/06/10 16:48:03;;;;;;;9.47;3.53;;;;;;;23.35;41.89;98866.28;125626;1093;103012;-74
2021/06/10 16:50:31;;;;;;;8.17;3.50;;;;;;;23.34;41.52;98859.17;125724;1093;103007;-75
2021/06/10 16:53:00;;;;;;;8.43;3.10;;;;;;;23.32;41.75;98861.25;125547;1093;102923;-74
2021/06/10 16:55:29;;;;;;;4.97;3.03;;;;;;;23.30;41.75;98866.86;125652;1093;103061;-75
2021/06/10 16:57:58;;;;;;;8.73;3.00;;;;;;;23.27;41.41;98858.30;125681;1093;102933;-77
2021/06/10 17:00:33;;;;;;;5.97;3.00;;;;;;;23.23;41.30;98867.87;125547;1093;103032;-73
2021/06/10 17:05:35;;;;;;;27.60;13.27;;;;;;;23.18;41.36;98860.30;125717;1093;103084;-73
2021/06/10 17:08:05;;;;;;;14.23;5.00;;;;;;;23.15;41.72;98857.98;125705;1093;103117;-75
2021/06/10 17:10:35;;;;;;;5.93;3.30;;;;;;;23.14;41.30;98859.02;125730;1092;102984;-73
2021/06/10 17:13:05;;;;;;;6.77;3.13;;;;;;;23.13;41.35;98868.20;125665;1093;103038;-73
2021/06/10 17:15:34;;;;;;;7.00;3.00;;;;;;;23.12;41.29;98859.20;125697;1093;103004;-74
2021/06/10 17:18:08;;;;;;;6.73;3.13;;;;;;;23.10;41.92;98861.27;125676;1093;102918;-73
2021/06/10 17:20:40;;;;;;;5.40;3.13;;;;;;;23.07;41.26;98860.84;125725;1093;103052;-74
2021/06/10 17:23:09;;;;;;;5.60;2.90;;;;;;;23.05;41.44;98861.88;125676;1091;103061;-75
2021/06/10 17:25:38;;;;;;;5.00;2.90;;;;;;;23.01;41.13;98860.59;125626;1093;103080;-74
2021/06/10 17:28:06;;;;;;;4.77;3.30;;;;;;;23.00;41.49;98868.95;125621;1093;102913;-73
2021/06/10 17:30:35;;;;;;;8.83;3.43;;;;;;;22.99;41.33;98867.27;125514;1092;102940;-73
2021/06/10 17:33:07;;;;;;;7.60;3.40;;;;;;;22.96;40.68;98867.66;125485;1093;103006;-73
2021/06/10 17:35:35;;;;;;;8.57;3.60;;;;;;;22.93;41.42;98873.48;125423;1092;102968;-74
2021/06/10 17:38:04;;;;;;;10.67;3.77;;;;;;;22.90;41.18;98871.98;125468;1091;103157;-74
2021/06/10 17:40:32;;;;;;;10.43;3.80;;;;;;;22.86;41.13;98874.26;125731;1093;102946;-74
2021/06/10 17:43:00;;;;;;;8.40;3.57;;;;;;;22.83;40.97;98881.92;125698;1092;103464;-73
2021/06/10 17:45:29;;;;;;;11.97;4.63;;;;;;;22.81;41.18;98875.89;125706;1093;103048;-75
2021/06/10 17:47:57;;;;;;;21.87;10.83;;;;;;;22.75;41.48;98881.06;125828;1093;103014;-74
2021/06/10 17:50:28;;;;;;;21.77;10.67;;;;;;;22.72;41.66;98876.03;125676;1093;102908;-74
2021/06/10 17:52:56;;;;;;;17.90;7.17;;;;;;;22.68;40.94;98884.73;125715;1093;102967;-75
2021/06/10 17:55:33;;;;;;;16.97;6.27;;;;;;;22.62;41.61;98880.94;125651;1092;103530;-75
2021/06/10 17:58:02;;;;;;;14.47;4.50;;;;;;;22.57;41.55;98881.53;125807;1093;102938;-75
2021/06/10 18:00:33;;;;;;;12.30;4.63;;;;;;;22.50;41.25;98883.33;125791;1092;103062;-75
2021/06/10 18:03:02;;;;;;;21.17;7.80;;;;;;;22.45;41.35;98883.07;125705;1093;103082;-73
2021/06/10 18:05:31;;;;;;;17.53;7.53;;;;;;;22.40;41.12;98880.06;125843;1092;102893;-74
2021/06/10 18:08:01;;;;;;;16.00;5.30;;;;;;;22.34;40.71;98875.41;125722;1093;102995;-75
2021/06/10 18:10:30;;;;;;;11.80;4.43;;;;;;;22.27;41.63;98878.89;125687;1093;103006;-76
2021/06/10 18:13:01;;;;;;;13.17;4.13;;;;;;;22.22;41.13;98885.92;125699;1092;103110;-75
2021/06/10 18:15:32;;;;;;;16.37;5.33;;;;;;;22.15;41.20;98881.27;125643;1093;103058;-76
2021/06/10 18:18:00;;;;;;;20.77;6.60;;;;;;;22.08;41.62;98879.53;125559;1092;103052;-74
2021/06/10 18:20:29;;;;;;;23.93;9.20;;;;;;;22.02;41.40;98886.53;125614;1092;103091;-74
2021/06/10 18:23:00;;;;;;;23.47;8.60;;;;;;;21.97;41.19;98889.00;125434;1093;102941;-74
2021/06/10 18:25:30;;;;;;;27.67;10.07;;;;;;;21.91;41.21;98887.87;125583;1093;103243;-73
2021/06/10 18:27:59;;;;;;;26.10;10.27;;;;;;;21.86;41.33;98895.72;125350;1094;103231;-74
2021/06/10 18:30:28;;;;;;;21.63;8.27;;;;;;;21.81;41.22;98901.70;126076;1093;103030;-74
2021/06/10 18:32:56;;;;;;;24.03;8.43;;;;;;;21.74;41.32;98892.66;125452;1092;103040;-75
2021/06/10 18:35:25;;;;;;;20.10;8.03;;;;;;;21.69;41.75;98889.67;125591;1093;102925;-75
2021/06/10 18:37:54;;;;;;;16.37;5.47;;;;;;;21.62;41.45;98889.59;125575;1093;103062;-78
2021/06/10 18:40:22;;;;;;;14.00;5.40;;;;;;;21.56;41.29;98895.72;125530;1093;103077;-71
2021/06/10 18:42:50;;;;;;;11.87;4.63;;;;;;;21.51;41.35;98903.56;125664;1093;103024;-72
2021/06/10 18:45:21;;;;;;;11.60;4.60;;;;;;;21.45;41.57;98898.89;125583;1093;103032;-72
2021/06/10 18:47:49;;;;;;;10.33;4.40;;;;;;;21.39;41.93;98905.89;125645;1093;102913;-73
2021/06/10 18:50:18;;;;;;;20.03;7.17;;;;;;;21.31;41.47;98914.95;125676;1093;102981;-75
2021/06/10 18:52:47;;;;;;;13.53;4.70;;;;;;;21.25;41.66;98919.21;125558;1093;103163;-74
2021/06/10 18:55:21;;;;;;;11.57;4.20;;;;;;;21.20;41.64;98910.80;125654;1093;102913;-73
2021/06/10 18:57:50;;;;;;;9.63;4.03;;;;;;;21.14;41.75;98918.83;125605;1093;102973;-71
2021/06/10 19:00:22;;;;;;;19.13;4.90;;;;;;;21.08;41.49;98909.59;125700;1092;103361;-75
2021/06/10 19:02:51;;;;;;;15.17;5.40;;;;;;;21.04;41.57;98917.22;125710;1093;103000;-74
2021/06/10 19:05:21;;;;;;;14.80;4.93;;;;;;;21.00;41.91;98920.48;125648;1093;103017;-74
2021/06/10 19:07:49;;;;;;;13.70;4.87;;;;;;;20.95;41.84;98924.58;125624;1091;102910;-74
2021/06/10 19:10:18;;;;;;;23.40;8.10;;;;;;;20.90;41.67;98928.86;125635;1093;103031;-72
2021/06/10 19:12:46;;;;;;;19.10;8.70;;;;;;;20.85;41.93;98926.68;125600;1091;103348;-74
2021/06/10 19:15:18;;;;;;;19.40;7.05;;;;;;;20.80;41.96;98935.34;125634;1093;102930;-74
2021/06/10 19:17:48;;;;;;;17.47;6.30;;;;;;;20.74;42.00;98924.40;125615;1093;102994;-78
2021/06/10 19:20:18;;;;;;;19.77;5.83;;;;;;;20.69;41.96;98933.03;125625;1092;103003;-77
2021/06/10 19:22:47;;;;;;;12.20;4.63;;;;;;;20.61;41.96;98933.09;125633;1091;103011;-76
2021/06/10 19:25:16;;;;;;;17.67;5.40;;;;;;;20.53;41.95;98929.45;125688;1093;103097;-78
2021/06/10 19:27:45;;;;;;;23.17;6.13;;;;;;;20.47;42.20;98929.30;125590;1093;104478;-76
2021/06/10 19:30:16;;;;;;;13.53;4.93;;;;;;;20.39;42.24;98927.50;125611;1093;103004;-74
2021/06/10 19:32:48;;;;;;;13.93;5.40;;;;;;;20.30;42.04;98926.73;125728;1093;103020;-76
2021/06/10 19:35:25;;;;;;;17.17;5.20;;;;;;;20.21;42.18;98938.59;125679;1092;103425;-77
2021/06/10 19:37:59;;;;;;;15.33;4.77;;;;;;;20.14;42.20;98940.31;125695;1093;103001;-76
2021/06/10 19:40:28;;;;;;;18.03;6.00;;;;;;;20.05;42.39;98940.34;125595;1093;102980;-76
2021/06/10 19:42:56;;;;;;;18.37;6.73;;;;;;;19.93;42.46;98934.50;125380;1093;103537;-75
2021/06/10 19:45:25;;;;;;;20.70;7.30;;;;;;;19.86;42.38;98933.48;125481;1093;103004;-76
2021/06/10 19:47:53;;;;;;;23.05;8.35;;;;;;;19.80;42.48;98936.88;125418;1092;103122;-79
2021/06/10 19:50:24;;;;;;;23.40;7.93;;;;;;;19.71;42.72;98941.47;125721;1093;102998;-81
2021/06/10 19:52:54;;;;;;;21.50;7.63;;;;;;;19.67;42.63;98950.92;125680;1093;103032;-76
